createdAt,value
2023-02-28T18:59:53.051Z,3.92
2023-02-28T19:02:25.887Z,4.47
2023-02-28T19:04:59.036Z,3.65
2023-02-28T19:07:32.131Z,3.50
2023-02-28T19:15:14.031Z,3.80
2023-02-28T19:17:47.517Z,4.20
2023-02-28T19:20:20.681Z,4.18
2023-02-28T19:22:53.374Z,4.00
2023-02-28T19:25:26.268Z,3.75
2023-02-28T19:27:59.024Z,4.68
2023-02-28T19:30:33.053Z,4.75
2023-02-28T19:33:06.156Z,3.90
2023-02-28T19:35:41.337Z,4.53
2023-02-28T19:38:14.250Z,3.80
2023-02-28T19:43:19.898Z,3.72
2023-02-28T19:45:54.047Z,4.40
2023-02-28T19:48:28.328Z,3.65
2023-02-28T19:51:03.277Z,4.05
2023-02-28T19:53:37.978Z,4.32
2023-02-28T19:56:11.415Z,4.45
2023-02-28T19:58:44.388Z,4.35
2023-02-28T20:03:52.957Z,4.97
2023-02-28T20:06:25.862Z,4.60
2023-02-28T20:08:58.956Z,4.57
2023-02-28T20:11:31.863Z,4.95
2023-02-28T20:14:05.415Z,4.78
2023-02-28T20:16:39.509Z,4.90
2023-02-28T20:19:13.275Z,4.55
2023-02-28T20:21:46.187Z,4.50
2023-02-28T20:26:52.252Z,4.57
2023-02-28T20:29:25.171Z,4.93
2023-02-28T20:34:31.892Z,4.55
2023-02-28T20:37:04.636Z,4.90
2023-02-28T20:39:37.723Z,5.15
2023-02-28T20:42:10.356Z,5.03
2023-02-28T20:44:43.354Z,5.80
2023-02-28T20:47:17.650Z,5.18
2023-02-28T20:49:50.675Z,4.82
2023-02-28T20:52:23.391Z,5.20
2023-02-28T20:54:56.080Z,4.78
2023-02-28T20:57:30.184Z,5.07
2023-02-28T21:00:03.881Z,4.97
2023-02-28T21:02:38.160Z,4.53
2023-02-28T21:05:11.120Z,5.05
2023-02-28T21:10:17.001Z,5.10
2023-02-28T21:12:53.491Z,5.13
2023-02-28T21:15:26.367Z,5.82
2023-02-28T21:20:33.311Z,5.55
2023-02-28T21:28:12.563Z,5.88
2023-02-28T21:30:45.326Z,5.72
2023-02-28T21:33:19.358Z,6.18
2023-02-28T21:35:52.966Z,6.30
2023-02-28T21:38:25.735Z,6.18
2023-02-28T21:41:05.074Z,5.50
2023-02-28T21:43:38.286Z,6.57
2023-02-28T21:46:17.137Z,6.88
2023-02-28T21:48:52.142Z,7.70
2023-02-28T21:51:26.864Z,6.47
2023-02-28T21:54:00.751Z,6.72
2023-02-28T21:56:35.866Z,7.40
2023-02-28T21:59:09.700Z,6.85
2023-02-28T22:01:44.900Z,6.85
2023-02-28T22:04:22.595Z,6.00
2023-02-28T22:07:00.615Z,6.72
2023-02-28T22:09:33.531Z,7.93
2023-02-28T22:12:09.743Z,6.75
2023-02-28T22:14:44.708Z,6.95
2023-02-28T22:17:20.185Z,6.85
2023-02-28T22:19:54.497Z,7.00
2023-02-28T22:22:27.319Z,6.72
2023-02-28T22:25:00.005Z,7.63
2023-02-28T22:27:32.936Z,7.38
2023-02-28T22:32:39.005Z,7.40
2023-02-28T22:35:13.057Z,6.50
2023-02-28T22:37:46.077Z,7.45
2023-02-28T22:42:51.639Z,5.20
2023-02-28T22:45:24.348Z,6.20
2023-02-28T22:47:57.098Z,6.82
2023-02-28T22:50:31.336Z,9.07
2023-02-28T22:53:04.094Z,7.55
2023-02-28T22:55:36.821Z,8.07
2023-02-28T22:58:09.625Z,8.38
2023-02-28T23:00:42.820Z,8.02
2023-02-28T23:03:15.717Z,8.68
2023-02-28T23:08:22.598Z,8.13
2023-02-28T23:10:55.330Z,8.55
2023-02-28T23:13:28.187Z,8.13
2023-02-28T23:18:35.985Z,9.10
2023-02-28T23:21:10.204Z,9.15
2023-02-28T23:23:48.519Z,8.73
2023-02-28T23:26:21.300Z,7.97
2023-02-28T23:31:27.083Z,6.32
2023-02-28T23:34:00.660Z,8.98
2023-02-28T23:36:34.765Z,8.23
2023-02-28T23:39:07.665Z,8.23
2023-02-28T23:44:17.019Z,6.35
2023-02-28T23:46:51.754Z,9.00
2023-02-28T23:49:24.434Z,8.07
2023-02-28T23:51:58.483Z,8.00
2023-02-28T23:54:31.152Z,8.63
2023-02-28T23:57:03.948Z,8.27
